Time;durP1;ratioP1;P1;durP2;ratioP2;P2;SDS_P1;SDS_P2;PMS_P1;PMS_P2;Temp;Humidity;BMP_temperature;BMP_pressure;BME280_temperature;BME280_humidity;BME280_pressure;Samples;Min_cycle;Max_cycle;Signal;HPM_P1;HPM_P2
2022/02/17 00:01:07;;;;;;;32.35;28.40;;;;;;;;;;4829303;29;92015;-74
2022/02/17 00:03:35;;;;;;;38.20;30.70;;;;;;;;;;4814987;29;91336;-74
2022/02/17 00:06:02;;;;;;;32.35;27.88;;;;;;;;;;4813179;29;94141;-73
2022/02/17 00:08:30;;;;;;;36.90;30.10;;;;;;;;;;4829813;29;94490;-74
2022/02/17 00:10:57;;;;;;;37.08;29.85;;;;;;;;;;4812520;29;92808;-73
2022/02/17 00:13:27;;;;;;;35.70;27.95;;;;;;;;;;4798335;29;92121;-73
2022/02/17 00:15:57;;;;;;;39.15;30.38;;;;;;;;;;4814643;29;93047;-73
2022/02/17 00:18:25;;;;;;;40.03;30.17;;;;;;;;;;4819490;29;93101;-73
2022/02/17 00:20:55;;;;;;;44.85;34.67;;;;;;;;;;4827367;29;92235;-73
2022/02/17 00:23:24;;;;;;;41.42;31.98;;;;;;;;;;4827679;29;92638;-73
2022/02/17 00:25:55;;;;;;;42.80;31.90;;;;;;;;;;4811981;29;94483;-73
2022/02/17 00:28:24;;;;;;;38.00;31.65;;;;;;;;;;4827823;29;92833;-74
2022/02/17 00:30:54;;;;;;;40.15;31.20;;;;;;;;;;4814665;29;92760;-74
2022/02/17 00:33:23;;;;;;;38.65;32.03;;;;;;;;;;4831461;29;93669;-73
2022/02/17 00:35:52;;;;;;;40.20;34.10;;;;;;;;;;4827506;29;95569;-73
2022/02/17 00:38:20;;;;;;;43.45;33.83;;;;;;;;;;4813424;29;95756;-73
2022/02/17 00:40:48;;;;;;;45.33;33.05;;;;;;;;;;4815863;29;92460;-73
2022/02/17 00:43:16;;;;;;;42.45;33.20;;;;;;;;;;4814435;29;91985;-73
2022/02/17 00:45:44;;;;;;;39.63;33.15;;;;;;;;;;4813971;29;94292;-74
2022/02/17 00:48:13;;;;;;;44.80;35.42;;;;;;;;;;4830684;29;94829;-73
2022/02/17 00:50:43;;;;;;;44.95;33.70;;;;;;;;;;4831099;29;92019;-75
2022/02/17 00:53:10;;;;;;;46.35;35.15;;;;;;;;;;4831734;29;91212;-74
2022/02/17 00:55:37;;;;;;;42.70;35.30;;;;;;;;;;4830888;29;93160;-73
2022/02/17 00:58:05;;;;;;;38.88;33.78;;;;;;;;;;4829574;29;96407;-72
2022/02/17 01:00:34;;;;;;;40.90;33.33;;;;;;;;;;4813241;29;93612;-72
2022/02/17 01:03:12;;;;;;;44.10;34.45;;;;;;;;;;4829957;29;92054;-73
2022/02/17 01:05:39;;;;;;;42.65;34.33;;;;;;;;;;4829997;29;93751;-73
2022/02/17 01:08:08;;;;;;;38.35;34.00;;;;;;;;;;4813913;29;94978;-73
2022/02/17 01:10:35;;;;;;;42.10;35.38;;;;;;;;;;4814123;29;91924;-72
2022/02/17 01:13:03;;;;;;;45.00;35.63;;;;;;;;;;4814370;29;92073;-73
2022/02/17 01:15:32;;;;;;;42.90;36.25;;;;;;;;;;4824449;29;94660;-73
2022/02/17 01:17:59;;;;;;;45.35;37.92;;;;;;;;;;4825220;29;93434;-75
2022/02/17 01:20:32;;;;;;;47.05;37.75;;;;;;;;;;4820775;29;92054;-75
2022/02/17 01:22:59;;;;;;;46.30;36.30;;;;;;;;;;4829515;29;92039;-75
2022/02/17 01:25:27;;;;;;;47.22;36.03;;;;;;;;;;4814229;29;94618;-76
2022/02/17 01:27:57;;;;;;;48.58;37.22;;;;;;;;;;4813754;29;97293;-76
2022/02/17 01:30:27;;;;;;;48.10;34.83;;;;;;;;;;4815102;29;91856;-76
2022/02/17 01:32:54;;;;;;;40.20;34.45;;;;;;;;;;4813902;29;92032;-77
2022/02/17 01:35:27;;;;;;;45.25;34.70;;;;;;;;;;4814869;29;95763;-77
2022/02/17 01:38:05;;;;;;;40.83;33.28;;;;;;;;;;4813904;29;96484;-76
2022/02/17 01:40:35;;;;;;;35.85;31.98;;;;;;;;;;4812831;29;91857;-76
2022/02/17 01:43:05;;;;;;;40.28;31.30;;;;;;;;;;4814664;29;91512;-76
2022/02/17 01:45:32;;;;;;;38.55;31.15;;;;;;;;;;4830957;29;94267;-76
2022/02/17 01:48:00;;;;;;;38.25;32.17;;;;;;;;;;4814651;29;93687;-76
2022/02/17 01:50:40;;;;;;;38.33;29.88;;;;;;;;;;4828438;29;92903;-76
2022/02/17 01:53:09;;;;;;;32.92;29.38;;;;;;;;;;4829672;29;91978;-76
2022/02/17 01:55:41;;;;;;;39.45;33.60;;;;;;;;;;4812895;29;96384;-76
2022/02/17 01:58:08;;;;;;;36.80;30.48;;;;;;;;;;4828593;29;93966;-76
2022/02/17 02:00:36;;;;;;;37.92;31.10;;;;;;;;;;4812405;29;92117;-76
2022/02/17 02:03:07;;;;;;;38.92;31.77;;;;;;;;;;4828743;29;91982;-76
2022/02/17 02:05:54;;;;;;;33.88;29.95;;;;;;;;;;4828435;29;92090;-76
2022/02/17 02:08:24;;;;;;;37.22;32.92;;;;;;;;;;4814021;29;91015;-76
2022/02/17 02:10:52;;;;;;;40.08;33.75;;;;;;;;;;4828442;29;92083;-76
2022/02/17 02:13:20;;;;;;;42.90;32.67;;;;;;;;;;4829381;29;92081;-77
2022/02/17 02:15:52;;;;;;;38.58;31.80;;;;;;;;;;4827325;29;97095;-73
2022/02/17 02:18:22;;;;;;;38.63;31.27;;;;;;;;;;4827685;29;97622;-73
2022/02/17 02:20:55;;;;;;;35.70;30.50;;;;;;;;;;4812904;29;91880;-73
2022/02/17 02:23:33;;;;;;;37.50;32.13;;;;;;;;;;4827831;29;91936;-73
2022/02/17 02:26:03;;;;;;;33.45;28.95;;;;;;;;;;4827736;29;96725;-73
2022/02/17 02:28:32;;;;;;;32.95;27.27;;;;;;;;;;4829138;29;94428;-73
2022/02/17 02:31:02;;;;;;;35.20;27.55;;;;;;;;;;4828384;29;92136;-73
2022/02/17 02:33:30;;;;;;;31.27;27.92;;;;;;;;;;4797899;29;92799;-73
2022/02/17 02:35:57;;;;;;;31.88;28.40;;;;;;;;;;4827732;29;96531;-73
2022/02/17 02:38:45;;;;;;;32.35;26.85;;;;;;;;;;4827159;29;96229;-74
2022/02/17 02:41:13;;;;;;;32.65;29.15;;;;;;;;;;4827559;29;92870;-73
2022/02/17 02:43:46;;;;;;;35.30;29.40;;;;;;;;;;4827918;29;92000;-73
2022/02/17 02:46:17;;;;;;;34.70;25.80;;;;;;;;;;4828029;29;96178;-73
2022/02/17 02:48:47;;;;;;;32.03;25.90;;;;;;;;;;4812108;29;95184;-73
2022/02/17 02:51:15;;;;;;;30.98;25.17;;;;;;;;;;4827825;29;91843;-73
2022/02/17 02:53:43;;;;;;;30.02;25.58;;;;;;;;;;4825985;29;92782;-73
2022/02/17 02:56:10;;;;;;;30.15;25.00;;;;;;;;;;4827198;29;97047;-73
2022/02/17 02:58:37;;;;;;;29.42;24.15;;;;;;;;;;4827374;29;95440;-73
2022/02/17 03:01:05;;;;;;;33.13;24.92;;;;;;;;;;4827459;29;92093;-79
2022/02/17 03:03:34;;;;;;;30.38;25.10;;;;;;;;;;4828147;29;91882;-79
2022/02/17 03:06:01;;;;;;;25.80;23.00;;;;;;;;;;4828098;29;94379;-79
2022/02/17 03:08:29;;;;;;;26.30;20.92;;;;;;;;;;4827418;29;96202;-79
2022/02/17 03:10:57;;;;;;;25.58;20.05;;;;;;;;;;4827951;29;92076;-79
2022/02/17 03:13:32;;;;;;;23.23;20.80;;;;;;;;;;4828360;29;91962;-79
2022/02/17 03:16:00;;;;;;;27.42;21.38;;;;;;;;;;4827722;29;97076;-75
2022/02/17 03:18:28;;;;;;;21.17;18.98;;;;;;;;;;4827178;29;94880;-75
2022/02/17 03:20:55;;;;;;;22.08;19.42;;;;;;;;;;4827165;29;91858;-75
2022/02/17 03:23:22;;;;;;;26.45;19.00;;;;;;;;;;4812890;29;91351;-75
2022/02/17 03:26:00;;;;;;;22.50;19.52;;;;;;;;;;4827542;29;96519;-75
2022/02/17 03:28:28;;;;;;;19.45;17.35;;;;;;;;;;4812734;29;96910;-75
2022/02/17 03:31:02;;;;;;;19.98;15.95;;;;;;;;;;4827075;29;92939;-74
2022/02/17 03:33:30;;;;;;;17.27;15.43;;;;;;;;;;4826992;29;92166;-74
2022/02/17 03:36:00;;;;;;;16.92;14.10;;;;;;;;;;4827339;29;95488;-74
2022/02/17 03:38:28;;;;;;;18.90;16.90;;;;;;;;;;4827327;29;94342;-74
2022/02/17 03:40:57;;;;;;;19.20;15.18;;;;;;;;;;4812048;29;91936;-74
2022/02/17 03:43:31;;;;;;;18.08;15.70;;;;;;;;;;4813311;29;92092;-73
2022/02/17 03:46:00;;;;;;;17.75;15.38;;;;;;;;;;4811454;29;94933;-75
2022/02/17 03:48:28;;;;;;;17.35;15.25;;;;;;;;;;4811905;29;96397;-75
2022/02/17 03:51:03;;;;;;;17.17;13.85;;;;;;;;;;4813341;29;91971;-75
2022/02/17 03:53:33;;;;;;;17.05;14.30;;;;;;;;;;4811848;29;91956;-83
2022/02/17 03:56:03;;;;;;;17.67;13.80;;;;;;;;;;4811890;29;96238;-79
2022/02/17 03:59:01;;;;;;;15.60;13.63;;;;;;;;;;4814950;29;93013;-79
2022/02/17 04:01:33;;;;;;;15.00;13.32;;;;;;;;;;4814306;29;91818;-79
2022/02/17 04:04:03;;;;;;;14.82;13.32;;;;;;;;;;4812603;29;92043;-79
2022/02/17 04:06:31;;;;;;;14.68;13.13;;;;;;;;;;4831279;29;93944;-79
2022/02/17 04:09:00;;;;;;;15.85;13.27;;;;;;;;;;4829581;29;94733;-74
2022/02/17 04:11:29;;;;;;;16.33;13.10;;;;;;;;;;4814783;29;91894;-74
2022/02/17 04:13:57;;;;;;;15.77;13.75;;;;;;;;;;4815527;29;91204;-74
2022/02/17 04:16:33;;;;;;;14.45;13.02;;;;;;;;;;4815455;29;96487;-74
2022/02/17 04:19:18;;;;;;;;;;;;;;;;;;4803658;29;94893;-74
2022/02/17 04:22:05;;;;;;;16.35;13.57;;;;;;;;;;4839035;29;92804;-74
2022/02/17 04:25:05;;;;;;;17.45;13.70;;;;;;;;;;4818357;29;92088;-74
2022/02/17 04:27:33;;;;;;;15.98;14.27;;;;;;;;;;4798816;29;95120;-74
2022/02/17 04:30:06;;;;;;;14.02;12.63;;;;;;;;;;4814860;29;95063;-74
2022/02/17 04:32:33;;;;;;;14.40;11.95;;;;;;;;;;4814407;29;91895;-74
2022/02/17 04:35:02;;;;;;;14.85;12.50;;;;;;;;;;4815371;29;92072;-74
2022/02/17 04:37:29;;;;;;;18.77;12.75;;;;;;;;;;4830995;29;93254;-74
2022/02/17 04:40:00;;;;;;;16.02;13.10;;;;;;;;;;4829909;29;96176;-74
2022/02/17 04:42:33;;;;;;;14.40;12.85;;;;;;;;;;4835331;29;91976;-74
2022/02/17 04:45:02;;;;;;;16.38;13.60;;;;;;;;;;4818809;29;91912;-75
2022/02/17 04:47:30;;;;;;;15.10;12.80;;;;;;;;;;4807437;29;98215;-75
2022/02/17 04:49:59;;;;;;;16.15;13.35;;;;;;;;;;4819848;29;96681;-75
2022/02/17 04:52:26;;;;;;;16.83;13.77;;;;;;;;;;4831228;29;91920;-74
2022/02/17 04:54:53;;;;;;;14.43;12.88;;;;;;;;;;4830801;29;91997;-75
2022/02/17 04:57:20;;;;;;;17.40;14.30;;;;;;;;;;4830132;29;94505;-75
2022/02/17 04:59:48;;;;;;;17.48;14.38;;;;;;;;;;4828970;29;96316;-74
2022/02/17 05:02:18;;;;;;;15.27;12.95;;;;;;;;;;4829384;29;91833;-75
2022/02/17 05:04:52;;;;;;;14.48;12.95;;;;;;;;;;4815269;29;90976;-74
2022/02/17 05:07:25;;;;;;;25.48;14.20;;;;;;;;;;4814639;29;96255;-75
2022/02/17 05:09:53;;;;;;;15.07;13.35;;;;;;;;;;4829067;29;96696;-82
2022/02/17 05:12:32;;;;;;;13.15;11.85;;;;;;;;;;4829199;29;92773;-82
2022/02/17 05:15:01;;;;;;;14.95;11.93;;;;;;;;;;4829422;29;92078;-82
2022/02/17 05:17:31;;;;;;;12.20;10.77;;;;;;;;;;4828661;29;96844;-74
2022/02/17 05:19:58;;;;;;;15.45;11.43;;;;;;;;;;4830125;29;92136;-75
2022/02/17 05:22:44;;;;;;;13.85;10.13;;;;;;;;;;4829476;29;91999;-74
2022/02/17 05:25:31;;;;;;;11.40;9.75;;;;;;;;;;4818611;29;92321;-74
2022/02/17 05:28:16;;;;;;;15.45;10.98;;;;;;;;;;4829330;29;96094;-74
2022/02/17 05:31:16;;;;;;;13.98;11.38;;;;;;;;;;4798392;29;92334;-75
2022/02/17 05:34:03;;;;;;;12.77;11.48;;;;;;;;;;4813182;29;91930;-75
2022/02/17 05:36:40;;;;;;;11.45;10.25;;;;;;;;;;4829419;29;92025;-75
2022/02/17 05:39:22;;;;;;;13.07;9.25;;;;;;;;;;4828261;29;98258;-75
2022/02/17 05:41:53;;;;;;;11.32;10.27;;;;;;;;;;4829220;29;95446;-75
2022/02/17 05:44:21;;;;;;;12.82;11.52;;;;;;;;;;4830218;29;91881;-75
2022/02/17 05:46:50;;;;;;;13.82;11.80;;;;;;;;;;4829873;29;92012;-76
2022/02/17 05:49:17;;;;;;;16.65;12.05;;;;;;;;;;4828765;29;94214;-76
2022/02/17 05:51:45;;;;;;;13.32;11.93;;;;;;;;;;4828364;29;94747;-76
2022/02/17 05:54:13;;;;;;;12.63;10.43;;;;;;;;;;4829729;29;92627;-75
2022/02/17 05:56:42;;;;;;;12.45;10.93;;;;;;;;;;4830281;29;91323;-75
2022/02/17 05:59:09;;;;;;;11.98;10.60;;;;;;;;;;4829284;29;94936;-76
2022/02/17 06:01:37;;;;;;;15.77;12.23;;;;;;;;;;4831644;29;93008;-74
2022/02/17 06:04:04;;;;;;;13.63;12.15;;;;;;;;;;4830185;29;93554;-75
2022/02/17 06:06:36;;;;;;;17.70;15.38;;;;;;;;;;4813204;29;92094;-75
2022/02/17 06:09:05;;;;;;;23.55;15.38;;;;;;;;;;4813968;29;94681;-75
2022/02/17 06:11:34;;;;;;;23.38;20.00;;;;;;;;;;4829308;29;94683;-74
2022/02/17 06:14:07;;;;;;;28.50;20.95;;;;;;;;;;4800817;29;93599;-74
2022/02/17 06:16:34;;;;;;;26.27;20.52;;;;;;;;;;4815964;29;92002;-77
2022/02/17 06:19:02;;;;;;;23.17;20.70;;;;;;;;;;4816572;29;95001;-78
2022/02/17 06:21:30;;;;;;;27.05;21.30;;;;;;;;;;4830198;29;93273;-76
2022/02/17 06:23:58;;;;;;;25.30;20.45;;;;;;;;;;4830116;29;92096;-75
2022/02/17 06:26:26;;;;;;;27.15;21.48;;;;;;;;;;4821722;29;92030;-78
2022/02/17 06:28:53;;;;;;;22.98;20.45;;;;;;;;;;4814500;29;94806;-78
2022/02/17 06:31:21;;;;;;;23.60;20.75;;;;;;;;;;4816231;29;95280;-75
2022/02/17 06:33:49;;;;;;;26.45;21.00;;;;;;;;;;4800556;29;91895;-80
2022/02/17 06:36:17;;;;;;;28.63;24.65;;;;;;;;;;4816567;29;92072;-73
2022/02/17 06:38:45;;;;;;;28.55;21.20;;;;;;;;;;4812435;29;94838;-72
2022/02/17 06:41:14;;;;;;;26.58;23.17;;;;;;;;;;4827905;29;92484;-72
2022/02/17 06:43:42;;;;;;;26.33;22.20;;;;;;;;;;4799573;29;91997;-73
2022/02/17 06:46:10;;;;;;;24.30;20.00;;;;;;;;;;4828500;29;91273;-72
2022/02/17 06:48:37;;;;;;;23.35;17.95;;;;;;;;;;4813429;29;93921;-72
2022/02/17 06:51:05;;;;;;;23.30;19.13;;;;;;;;;;4814263;29;94900;-72
2022/02/17 06:53:32;;;;;;;24.40;19.30;;;;;;;;;;4828824;29;93246;-78
2022/02/17 06:55:59;;;;;;;23.52;20.98;;;;;;;;;;4813083;29;92067;-77
2022/02/17 06:58:27;;;;;;;23.02;20.27;;;;;;;;;;4807569;29;93212;-78
2022/02/17 07:00:54;;;;;;;26.20;21.35;;;;;;;;;;4806331;29;94736;-72
2022/02/17 07:03:21;;;;;;;23.67;20.85;;;;;;;;;;4815091;29;91958;-72
2022/02/17 07:05:49;;;;;;;29.50;21.08;;;;;;;;;;4811177;29;91982;-73
2022/02/17 07:08:17;;;;;;;25.65;21.73;;;;;;;;;;4828669;29;93552;-76
2022/02/17 07:10:59;;;;;;;26.15;21.15;;;;;;;;;;4828897;29;95142;-77
2022/02/17 07:13:28;;;;;;;24.15;21.23;;;;;;;;;;4813847;29;92009;-73
2022/02/17 07:15:57;;;;;;;29.42;22.05;;;;;;;;;;4828340;29;91894;-72
2022/02/17 07:18:25;;;;;;;26.25;21.95;;;;;;;;;;4827080;29;95521;-73
2022/02/17 07:20:54;;;;;;;24.83;20.58;;;;;;;;;;4808581;29;95635;-70
2022/02/17 07:23:26;;;;;;;24.90;20.95;;;;;;;;;;4828269;29;91982;-76
2022/02/17 07:25:54;;;;;;;26.85;21.02;;;;;;;;;;4800472;29;92566;-70
2022/02/17 07:28:22;;;;;;;27.98;23.08;;;;;;;;;;4827743;29;94570;-73
2022/02/17 07:30:50;;;;;;;22.33;19.92;;;;;;;;;;4811036;29;93872;-72
2022/02/17 07:33:18;;;;;;;25.95;21.00;;;;;;;;;;4827668;29;92678;-73
2022/02/17 07:35:46;;;;;;;26.00;22.73;;;;;;;;;;4829190;29;91158;-73
2022/02/17 07:38:33;;;;;;;25.48;21.52;;;;;;;;;;4827100;29;95386;-73
2022/02/17 07:41:00;;;;;;;23.52;20.38;;;;;;;;;;4812026;29;94784;-75
2022/02/17 07:43:27;;;;;;;24.15;20.83;;;;;;;;;;4811607;29;92983;-72
2022/02/17 07:45:57;;;;;;;24.13;19.55;;;;;;;;;;4806561;29;91822;-72
2022/02/17 07:48:24;;;;;;;24.05;21.50;;;;;;;;;;4806757;29;94857;-72
2022/02/17 07:50:53;;;;;;;21.48;19.20;;;;;;;;;;4810431;29;93789;-71
2022/02/17 07:53:20;;;;;;;26.42;21.25;;;;;;;;;;4810942;29;91961;-75
2022/02/17 07:55:47;;;;;;;27.58;20.42;;;;;;;;;;4811188;29;92235;-72
2022/02/17 07:58:17;;;;;;;24.60;22.08;;;;;;;;;;4826680;29;94832;-73
2022/02/17 08:00:45;;;;;;;22.13;19.45;;;;;;;;;;4811797;29;95663;-72
2022/02/17 08:03:13;;;;;;;23.27;18.90;;;;;;;;;;4828311;29;91998;-72
2022/02/17 08:05:41;;;;;;;27.48;19.85;;;;;;;;;;4810921;29;92127;-71
2022/02/17 08:08:10;;;;;;;24.45;19.75;;;;;;;;;;4826730;29;94947;-72
2022/02/17 08:10:38;;;;;;;22.98;19.88;;;;;;;;;;4810943;29;95353;-72
2022/02/17 08:13:06;;;;;;;26.63;19.38;;;;;;;;;;4811093;29;91942;-73
2022/02/17 08:15:33;;;;;;;27.10;20.60;;;;;;;;;;4828023;29;92115;-72
2022/02/17 08:18:02;;;;;;;26.42;19.80;;;;;;;;;;4827319;29;93385;-73
2022/02/17 08:20:30;;;;;;;21.92;18.05;;;;;;;;;;4827467;29;93905;-72
2022/02/17 08:22:57;;;;;;;22.42;19.40;;;;;;;;;;4810986;29;91967;-73
2022/02/17 08:25:25;;;;;;;25.50;19.42;;;;;;;;;;4828162;29;91218;-72
2022/02/17 08:27:53;;;;;;;21.17;18.95;;;;;;;;;;4826941;29;93129;-72
2022/02/17 08:30:23;;;;;;;24.13;20.48;;;;;;;;;;4827392;29;94408;-73
2022/02/17 08:32:56;;;;;;;21.33;17.42;;;;;;;;;;4810178;29;92853;-73
2022/02/17 08:35:27;;;;;;;19.95;17.40;;;;;;;;;;4827659;29;91870;-72
2022/02/17 08:37:56;;;;;;;23.23;18.45;;;;;;;;;;4810934;29;94391;-72
2022/02/17 08:40:25;;;;;;;20.15;17.67;;;;;;;;;;4811107;29;92994;-75
2022/02/17 08:42:52;;;;;;;21.33;17.95;;;;;;;;;;4826465;29;91932;-73
2022/02/17 08:45:20;;;;;;;23.88;15.82;;;;;;;;;;4827658;29;92042;-73
2022/02/17 08:47:47;;;;;;;22.60;18.48;;;;;;;;;;4827354;29;94961;-73
2022/02/17 08:50:14;;;;;;;21.38;16.25;;;;;;;;;;4810996;29;93023;-73
2022/02/17 08:52:42;;;;;;;22.83;19.00;;;;;;;;;;4813614;29;91859;-73
2022/02/17 08:55:09;;;;;;;21.55;18.38;;;;;;;;;;4828474;29;91980;-73
2022/02/17 08:57:37;;;;;;;20.88;16.35;;;;;;;;;;4813114;29;94302;-73
2022/02/17 09:00:07;;;;;;;18.80;16.88;;;;;;;;;;4829279;29;95520;-72
2022/02/17 09:02:34;;;;;;;20.83;16.58;;;;;;;;;;4813225;29;91856;-72
2022/02/17 09:05:02;;;;;;;17.63;15.80;;;;;;;;;;4828353;29;92124;-73
2022/02/17 09:07:30;;;;;;;20.50;16.63;;;;;;;;;;4809127;29;93203;-73
2022/02/17 09:09:57;;;;;;;22.42;15.93;;;;;;;;;;4813289;29;94764;-73
2022/02/17 09:12:30;;;;;;;21.50;18.98;;;;;;;;;;4813044;29;91905;-73
2022/02/17 09:14:57;;;;;;;19.88;17.73;;;;;;;;;;4814599;29;91105;-73
2022/02/17 09:17:24;;;;;;;19.77;17.70;;;;;;;;;;4812991;29;94577;-73
2022/02/17 09:19:51;;;;;;;17.95;16.08;;;;;;;;;;4829713;29;94127;-73
2022/02/17 09:22:19;;;;;;;24.60;19.98;;;;;;;;;;4812853;29;93068;-73
2022/02/17 09:24:48;;;;;;;20.45;17.92;;;;;;;;;;4830432;29;91967;-73
2022/02/17 09:27:16;;;;;;;20.85;18.58;;;;;;;;;;4812930;29;94408;-73
2022/02/17 09:29:43;;;;;;;20.33;18.27;;;;;;;;;;4813048;29;94521;-71
2022/02/17 09:32:23;;;;;;;23.38;19.85;;;;;;;;;;4814656;29;92437;-73
2022/02/17 09:34:50;;;;;;;21.02;18.50;;;;;;;;;;4823850;29;92543;-73
2022/02/17 09:37:18;;;;;;;22.17;19.83;;;;;;;;;;4831387;29;94307;-72
2022/02/17 09:39:47;;;;;;;19.75;17.63;;;;;;;;;;4829904;29;95295;-72
2022/02/17 09:42:15;;;;;;;18.98;17.00;;;;;;;;;;4828947;29;91983;-72
2022/02/17 09:44:42;;;;;;;20.55;18.02;;;;;;;;;;4818778;29;92951;-72
2022/02/17 09:47:11;;;;;;;23.80;19.08;;;;;;;;;;4829533;29;95681;-73
2022/02/17 09:49:42;;;;;;;19.58;17.20;;;;;;;;;;4817888;29;94029;-73
2022/02/17 09:52:16;;;;;;;20.75;18.55;;;;;;;;;;4828688;29;91911;-72
2022/02/17 09:54:44;;;;;;;26.00;20.27;;;;;;;;;;4829902;29;92998;-74
2022/02/17 09:57:11;;;;;;;20.38;18.17;;;;;;;;;;4813390;29;94408;-73
2022/02/17 09:59:42;;;;;;;19.15;17.25;;;;;;;;;;4813187;29;94348;-73
2022/02/17 10:02:12;;;;;;;22.45;20.17;;;;;;;;;;4814081;29;91832;-73
2022/02/17 10:04:42;;;;;;;20.38;18.27;;;;;;;;;;4815138;29;91336;-72
2022/02/17 10:07:11;;;;;;;20.60;17.50;;;;;;;;;;4829343;29;94983;-73
2022/02/17 10:09:42;;;;;;;21.58;17.35;;;;;;;;;;4830342;29;94360;-73
2022/02/17 10:12:12;;;;;;;19.10;17.10;;;;;;;;;;4815392;29;92889;-73
2022/02/17 10:14:40;;;;;;;19.13;17.13;;;;;;;;;;4811187;29;92161;-77
2022/02/17 10:17:14;;;;;;;19.85;16.67;;;;;;;;;;4829715;29;93383;-75
2022/02/17 10:19:52;;;;;;;19.45;17.35;;;;;;;;;;4830035;29;94105;-75
2022/02/17 10:22:30;;;;;;;17.70;15.10;;;;;;;;;;4828554;29;92028;-75
2022/02/17 10:24:59;;;;;;;16.55;14.93;;;;;;;;;;4829534;29;91851;-76
2022/02/17 10:27:33;;;;;;;20.05;18.02;;;;;;;;;;4829781;29;94126;-75
2022/02/17 10:30:09;;;;;;;17.52;15.75;;;;;;;;;;4830005;29;94876;-77
2022/02/17 10:33:00;;;;;;;22.25;16.08;;;;;;;;;;4829311;29;91917;-77
2022/02/17 10:35:28;;;;;;;17.33;14.85;;;;;;;;;;4830195;29;91952;-76
2022/02/17 10:37:57;;;;;;;17.98;16.17;;;;;;;;;;4828646;29;95659;-76
2022/02/17 10:40:30;;;;;;;18.35;14.85;;;;;;;;;;4829747;29;94974;-76
2022/02/17 10:43:07;;;;;;;18.85;15.20;;;;;;;;;;4828142;29;92193;-77
2022/02/17 10:45:45;;;;;;;17.00;14.80;;;;;;;;;;4820460;29;91981;-77
2022/02/17 10:48:16;;;;;;;18.10;14.43;;;;;;;;;;4824420;29;93558;-77
2022/02/17 10:50:46;;;;;;;16.17;14.57;;;;;;;;;;4828096;29;95078;-78
2022/02/17 10:53:27;;;;;;;18.90;15.10;;;;;;;;;;4829716;29;92260;-77
2022/02/17 10:55:56;;;;;;;16.23;14.48;;;;;;;;;;4830453;29;91069;-75
2022/02/17 10:58:27;;;;;;;16.15;14.45;;;;;;;;;;4827217;29;94659;-75
2022/02/17 11:01:00;;;;;;;22.05;15.00;;;;;;;;;;4827476;29;92966;-76
2022/02/17 11:03:30;;;;;;;20.30;14.07;;;;;;;;;;4829095;29;92845;-76
2022/02/17 11:06:07;;;;;;;12.50;10.05;;;;;;;;;;4814433;29;91950;-76
2022/02/17 11:08:36;;;;;;;15.30;11.60;;;;;;;;;;4828486;29;94742;-77
2022/02/17 11:11:04;;;;;;;14.13;12.00;;;;;;;;;;4828493;29;93396;-76
2022/02/17 11:13:33;;;;;;;17.88;14.05;;;;;;;;;;4808843;29;91760;-76
2022/02/17 11:16:09;;;;;;;13.02;11.57;;;;;;;;;;4809564;29;91873;-76
2022/02/17 11:18:38;;;;;;;17.77;13.32;;;;;;;;;;4809293;29;95311;-77
2022/02/17 11:21:05;;;;;;;15.45;12.63;;;;;;;;;;4810103;29;94451;-77
2022/02/17 11:23:34;;;;;;;16.05;14.15;;;;;;;;;;4812306;29;91851;-76
2022/02/17 11:26:22;;;;;;;15.05;13.30;;;;;;;;;;4827383;29;91926;-77
2022/02/17 11:29:19;;;;;;;13.48;12.18;;;;;;;;;;4813041;29;95594;-76
2022/02/17 11:32:02;;;;;;;18.33;14.00;;;;;;;;;;4828180;29;93362;-76
2022/02/17 11:34:45;;;;;;;16.88;13.60;;;;;;;;;;4828839;29;91903;-77
2022/02/17 11:37:31;;;;;;;16.55;12.80;;;;;;;;;;4813617;29;91854;-76
2022/02/17 11:40:07;;;;;;;17.23;12.77;;;;;;;;;;4828712;29;95185;-77
2022/02/17 11:42:42;;;;;;;16.02;13.45;;;;;;;;;;4828314;29;94362;-77
2022/02/17 11:45:22;;;;;;;16.63;13.70;;;;;;;;;;4811780;29;91900;-77
2022/02/17 11:47:50;;;;;;;18.38;13.13;;;;;;;;;;4827422;29;91320;-77
2022/02/17 11:50:41;;;;;;;15.75;14.10;;;;;;;;;;4811201;29;94332;-76
2022/02/17 11:53:29;;;;;;;18.83;12.77;;;;;;;;;;4824435;29;92388;-76
2022/02/17 11:56:19;;;;;;;23.95;13.60;;;;;;;;;;4827730;29;92924;-76
2022/02/17 11:59:11;;;;;;;15.57;12.10;;;;;;;;;;4799865;29;92315;-76
2022/02/17 12:01:46;;;;;;;28.80;15.40;;;;;;;;;;4821782;29;94535;-76
2022/02/17 12:04:34;;;;;;;23.52;15.55;;;;;;;;;;4827486;29;94414;-78
2022/02/17 12:07:04;;;;;;;19.50;14.93;;;;;;;;;;4827710;29;91742;-78
2022/02/17 12:09:41;;;;;;;18.02;14.40;;;;;;;;;;4826471;29;92118;-78
2022/02/17 12:12:26;;;;;;;21.42;14.43;;;;;;;;;;4827517;29;94557;-78
2022/02/17 12:15:13;;;;;;;16.88;11.77;;;;;;;;;;4822554;29;92952;-78
2022/02/17 12:17:45;;;;;;;17.98;12.15;;;;;;;;;;4810885;29;92232;-78
2022/02/17 12:20:14;;;;;;;20.30;15.00;;;;;;;;;;4826602;29;91982;-77
2022/02/17 12:22:49;;;;;;;18.33;13.60;;;;;;;;;;4826973;29;95234;-77
2022/02/17 12:25:28;;;;;;;22.00;13.90;;;;;;;;;;4828516;29;94401;-77
2022/02/17 12:28:02;;;;;;;18.38;12.80;;;;;;;;;;4831426;29;92027;-78
2022/02/17 12:30:31;;;;;;;20.77;15.02;;;;;;;;;;4831238;29;92234;-78
2022/02/17 12:33:05;;;;;;;19.20;13.65;;;;;;;;;;4830986;29;93185;-78
2022/02/17 12:35:33;;;;;;;15.25;12.35;;;;;;;;;;4830259;29;94682;-78
2022/02/17 12:38:04;;;;;;;14.30;12.80;;;;;;;;;;4831001;29;92013;-78
2022/02/17 12:40:32;;;;;;;16.38;13.68;;;;;;;;;;4831803;29;91261;-78
2022/02/17 12:43:00;;;;;;;18.50;13.13;;;;;;;;;;4829329;29;94356;-78
2022/02/17 12:45:36;;;;;;;18.20;12.73;;;;;;;;;;4830194;29;95414;-78
2022/02/17 12:48:04;;;;;;;21.67;15.38;;;;;;;;;;4830163;29;93016;-78
2022/02/17 12:50:31;;;;;;;26.92;14.10;;;;;;;;;;4829868;29;91963;-79
2022/02/17 12:53:04;;;;;;;17.23;12.95;;;;;;;;;;4828411;29;94475;-78
2022/02/17 12:55:51;;;;;;;21.02;14.80;;;;;;;;;;4828510;29;94077;-78
2022/02/17 12:58:32;;;;;;;36.40;13.10;;;;;;;;;;4825784;29;91962;-77
2022/02/17 13:01:02;;;;;;;19.63;14.18;;;;;;;;;;4826234;29;91949;-77
2022/02/17 13:03:38;;;;;;;21.25;14.00;;;;;;;;;;4811079;29;94615;-77
2022/02/17 13:06:18;;;;;;;18.42;14.20;;;;;;;;;;4821630;29;93868;-78
2022/02/17 13:08:55;;;;;;;22.55;16.13;;;;;;;;;;4831143;29;91877;-77
2022/02/17 13:11:28;;;;;;;23.55;14.65;;;;;;;;;;4831129;29;91864;-77
2022/02/17 13:14:08;;;;;;;24.10;15.38;;;;;;;;;;4829257;29;95752;-76
2022/02/17 13:16:44;;;;;;;19.98;14.65;;;;;;;;;;4830463;29;94884;-76
2022/02/17 13:19:39;;;;;;;20.10;13.68;;;;;;;;;;4831147;29;91873;-76
2022/02/17 13:22:40;;;;;;;15.07;11.85;;;;;;;;;;4830578;29;92024;-76
2022/02/17 13:25:09;;;;;;;17.60;15.48;;;;;;;;;;4828836;29;93123;-77
2022/02/17 13:27:39;;;;;;;17.40;13.80;;;;;;;;;;4812807;29;94008;-77
2022/02/17 13:30:15;;;;;;;17.98;13.68;;;;;;;;;;4829312;29;91965;-77
2022/02/17 13:33:00;;;;;;;21.42;14.57;;;;;;;;;;4830753;29;91473;-77
2022/02/17 13:35:39;;;;;;;23.15;14.90;;;;;;;;;;4828161;29;94723;-78
2022/02/17 13:38:08;;;;;;;21.58;14.20;;;;;;;;;;4810956;29;93544;-77
2022/02/17 13:40:45;;;;;;;18.55;14.82;;;;;;;;;;4828970;29;92828;-79
2022/02/17 13:43:13;;;;;;;16.77;13.43;;;;;;;;;;4828301;29;92225;-78
2022/02/17 13:45:48;;;;;;;22.77;14.65;;;;;;;;;;4828917;29;94788;-78
2022/02/17 13:48:35;;;;;;;16.27;14.40;;;;;;;;;;4812142;29;94571;-78
2022/02/17 13:51:12;;;;;;;17.80;14.45;;;;;;;;;;4823611;29;91911;-77
2022/02/17 13:53:48;;;;;;;22.63;15.02;;;;;;;;;;4827594;29;92390;-78
2022/02/17 13:56:22;;;;;;;18.08;15.25;;;;;;;;;;4827696;29;94095;-77
2022/02/17 13:58:58;;;;;;;23.65;17.42;;;;;;;;;;4812292;29;92727;-78
2022/02/17 14:01:38;;;;;;;16.30;13.13;;;;;;;;;;4829103;29;92051;-78
2022/02/17 14:04:25;;;;;;;30.83;14.52;;;;;;;;;;4827860;29;91963;-79
2022/02/17 14:06:57;;;;;;;25.05;17.13;;;;;;;;;;4826812;29;93565;-79
2022/02/17 14:09:26;;;;;;;28.25;18.98;;;;;;;;;;4828490;29;95015;-77
2022/02/17 14:11:53;;;;;;;26.83;17.77;;;;;;;;;;4843168;29;92002;-78
2022/02/17 14:14:20;;;;;;;19.00;15.82;;;;;;;;;;4812458;29;91987;-77
2022/02/17 14:16:49;;;;;;;24.42;16.52;;;;;;;;;;4812137;29;94754;-77
2022/02/17 14:19:35;;;;;;;21.77;16.40;;;;;;;;;;4827670;29;93224;-78
2022/02/17 14:22:02;;;;;;;21.25;15.63;;;;;;;;;;4810059;29;91954;-78
2022/02/17 14:24:29;;;;;;;22.73;16.25;;;;;;;;;;4812700;29;91265;-78
2022/02/17 14:26:56;;;;;;;29.35;15.40;;;;;;;;;;4812475;29;94597;-78
2022/02/17 14:29:24;;;;;;;19.77;15.80;;;;;;;;;;4828497;29;92604;-78
2022/02/17 14:31:52;;;;;;;26.23;17.95;;;;;;;;;;4827648;29;92928;-77
2022/02/17 14:34:20;;;;;;;27.83;19.58;;;;;;;;;;4812298;29;92131;-78
2022/02/17 14:36:50;;;;;;;21.90;18.17;;;;;;;;;;4825017;29;93094;-78
2022/02/17 14:39:18;;;;;;;28.38;18.25;;;;;;;;;;4841940;29;93268;-79
2022/02/17 14:41:45;;;;;;;22.58;17.27;;;;;;;;;;4827091;29;91866;-78
2022/02/17 14:44:13;;;;;;;25.17;16.85;;;;;;;;;;4842628;29;92001;-77